Time;durP1;ratioP1;P1;durP2;ratioP2;P2;SDS_P1;SDS_P2;PMS_P1;PMS_P2;Temp;Humidity;BMP_temperature;BMP_pressure;BME280_temperature;BME280_humidity;BME280_pressure;Samples;Min_cycle;Max_cycle;Signal;HPM_P1;HPM_P2
2022/04/13 00:00:16;;;;;;;;;13.00;11.80;;;;;12.59;37.79;99754.81;5031525;28;8888;-75
2022/04/13 00:03:02;;;;;;;;;16.00;14.00;;;;;12.56;37.83;99763.56;5050681;28;8841;-75
2022/04/13 00:05:35;;;;;;;;;14.40;14.40;;;;;12.55;37.98;99766.16;5050621;28;8861;-78
2022/04/13 00:08:06;;;;;;;;;13.20;10.60;;;;;12.47;38.21;99771.44;5050855;28;9508;-75
2022/04/13 00:10:35;;;;;;;;;14.40;12.80;;;;;12.40;38.02;99767.09;5050589;28;8872;-77
2022/04/13 00:13:04;;;;;;;;;11.20;10.40;;;;;12.39;37.47;99762.78;5050857;28;8891;-75
2022/04/13 00:15:33;;;;;;;;;14.60;12.00;;;;;12.38;37.11;99758.41;5050696;28;8882;-74
2022/04/13 00:18:05;;;;;;;;;13.00;13.00;;;;;12.42;37.03;99762.75;5098610;28;8857;-74
2022/04/13 00:20:36;;;;;;;;;18.80;17.40;;;;;12.43;37.04;99767.97;5047877;28;9035;-76
2022/04/13 00:23:06;;;;;;;;;11.60;10.00;;;;;12.44;37.17;99767.09;5031506;28;8850;-75
2022/04/13 00:25:38;;;;;;;;;13.40;11.60;;;;;12.47;37.26;99767.06;5014682;28;8854;-75
2022/04/13 00:28:09;;;;;;;;;8.40;8.40;;;;;12.51;37.01;99772.31;5048098;28;8830;-76
2022/04/13 00:30:38;;;;;;;;;12.40;11.80;;;;;12.50;37.42;99771.44;5031147;28;8890;-78
2022/04/13 00:33:08;;;;;;;;;17.60;15.20;;;;;12.50;37.78;99778.44;5047260;28;8946;-78
2022/04/13 00:35:58;;;;;;;;;22.25;21.50;;;;;12.44;38.83;99780.19;4949842;28;8858;-75
2022/04/13 00:38:27;;;;;;;;;20.50;18.25;;;;;12.36;38.65;99774.13;4934024;28;8861;-77
2022/04/13 00:40:55;;;;;;;;;24.00;21.00;;;;;12.36;38.95;99776.75;4950000;28;8888;-75
2022/04/13 00:43:25;;;;;;;;;20.75;16.25;;;;;12.39;38.41;99786.31;4962222;28;9039;-76
2022/04/13 00:45:53;;;;;;;;;21.00;20.75;;;;;12.39;38.47;99787.16;4952552;28;8864;-75
2022/04/13 00:48:29;;;;;;;;;21.60;19.40;;;;;12.41;38.69;99776.72;4968657;28;8848;-74
2022/04/13 00:50:59;;;;;;;;;20.20;18.20;;;;;12.41;38.59;99777.56;4921078;28;8882;-76
2022/04/13 00:53:30;;;;;;;;;24.40;20.00;;;;;12.41;38.05;99779.31;4968536;28;8934;-76
2022/04/13 00:56:00;;;;;;;;;18.20;17.00;;;;;12.39;37.99;99774.09;4921492;28;8892;-77
2022/04/13 00:58:32;;;;;;;;;18.20;18.20;;;;;12.35;38.51;99777.59;4976860;28;9832;-75
2022/04/13 01:01:03;;;;;;;;;19.25;17.25;;;;;12.35;38.53;99774.13;4992116;28;9630;-78
2022/04/13 01:03:36;;;;;;;;;21.25;16.25;;;;;12.36;38.32;99773.22;4975341;28;8847;-76
2022/04/13 01:06:11;;;;;;;;;22.00;20.50;;;;;12.34;38.97;99765.38;4956681;28;9600;-74
2022/04/13 01:08:43;;;;;;;;;17.00;16.50;;;;;12.35;39.15;99776.75;5027420;28;8969;-75
2022/04/13 01:11:13;;;;;;;;;21.00;18.75;;;;;12.33;39.30;99775.88;5027011;28;8852;-76
2022/04/13 01:14:02;;;;;;;;;26.00;21.00;;;;;12.32;38.72;99774.13;5027736;28;8877;-74
2022/04/13 01:16:32;;;;;;;;;22.50;18.25;;;;;12.27;38.72;99772.41;5030004;28;8874;-73
2022/04/13 01:19:00;;;;;;;;;21.50;18.50;;;;;12.23;39.30;99772.41;5029501;28;8884;-74
2022/04/13 01:21:45;;;;;;;;;15.75;14.00;;;;;12.23;38.69;99777.63;5029777;28;9696;-76
2022/04/13 01:24:16;;;;;;;;;25.00;20.00;;;;;12.20;38.85;99775.06;5030218;28;8888;-74
2022/04/13 01:26:46;;;;;;;;;20.75;19.75;;;;;12.18;38.78;99792.50;5046670;28;9138;-77
2022/04/13 01:29:15;;;;;;;;;17.20;15.20;;;;;12.16;39.18;99787.25;5046958;28;8850;-76
2022/04/13 01:31:45;;;;;;;;;18.00;18.00;;;;;12.14;39.16;99789.00;5013345;28;8994;-74
2022/04/13 01:34:14;;;;;;;;;19.60;18.80;;;;;12.13;39.04;99794.25;5046465;28;8884;-74
2022/04/13 01:36:42;;;;;;;;;17.25;15.75;;;;;12.11;39.31;99788.16;5046191;28;8935;-74
2022/04/13 01:39:11;;;;;;;;;17.40;14.80;;;;;12.07;39.33;99784.66;5046368;28;8943;-76
2022/04/13 01:41:41;;;;;;;;;21.40;18.60;;;;;12.03;39.29;99788.16;5046553;28;8830;-75
2022/04/13 01:44:13;;;;;;;;;18.75;17.50;;;;;11.96;39.65;99789.91;5046684;28;8869;-76
2022/04/13 01:46:42;;;;;;;;;21.50;21.00;;;;;11.94;39.89;99788.19;5046092;28;8908;-77
2022/04/13 01:49:10;;;;;;;;;27.00;24.25;;;;;11.93;39.92;99795.16;5049011;28;8860;-75
2022/04/13 01:51:39;;;;;;;;;21.75;20.25;;;;;11.91;39.71;99783.84;5048785;28;8880;-75
2022/04/13 01:54:07;;;;;;;;;23.50;20.50;;;;;11.89;40.12;99786.47;5049072;28;8861;-75
2022/04/13 01:56:37;;;;;;;;;30.00;25.75;;;;;11.86;40.54;99788.16;5064045;28;8849;-77
2022/04/13 01:59:07;;;;;;;;;26.50;25.50;;;;;11.82;40.60;99787.31;5064138;28;8857;-76
2022/04/13 02:01:42;;;;;;;;;31.75;27.75;;;;;11.83;40.74;99783.84;5049110;28;8970;-72
2022/04/13 02:04:19;;;;;;;;;23.25;22.00;;;;;11.83;40.85;99790.78;5047988;28;8843;-75
2022/04/13 02:06:48;;;;;;;;;24.00;20.00;;;;;11.81;40.26;99795.13;5067218;28;8949;-76
2022/04/13 02:09:18;;;;;;;;;23.75;20.75;;;;;11.80;40.53;99788.19;5067740;28;8826;-74
2022/04/13 02:11:47;;;;;;;;;23.80;20.80;;;;;11.78;40.31;99790.81;5048544;28;9640;-76
2022/04/13 02:14:17;;;;;;;;;19.00;19.00;;;;;11.77;40.51;99789.03;5067381;28;8881;-75
2022/04/13 02:16:46;;;;;;;;;25.25;22.25;;;;;11.76;40.71;99789.94;5084141;28;8877;-76
2022/04/13 02:19:15;;;;;;;;;23.75;23.75;;;;;11.76;40.04;99786.44;5068450;28;8927;-74
2022/04/13 02:21:43;;;;;;;;;27.20;23.60;;;;;11.75;39.95;99795.16;5083837;28;8886;-75
2022/04/13 02:24:14;;;;;;;;;23.00;21.25;;;;;11.72;40.58;99790.81;5068527;28;8842;-77
2022/04/13 02:26:42;;;;;;;;;28.00;26.00;;;;;11.70;40.62;99788.19;5057260;28;8872;-77
2022/04/13 02:29:11;;;;;;;;;26.00;24.25;;;;;11.60;41.19;99783.84;5048171;28;8844;-77
2022/04/13 02:31:41;;;;;;;;;21.50;21.50;;;;;11.52;41.26;99788.22;5046658;28;8938;-74
2022/04/13 02:34:10;;;;;;;;;23.25;21.75;;;;;11.46;40.66;99778.63;5063597;28;8841;-74
2022/04/13 02:36:38;;;;;;;;;22.25;20.75;;;;;11.37;40.97;99783.00;5080385;28;9038;-74
2022/04/13 02:39:07;;;;;;;;;29.25;26.25;;;;;11.30;40.88;99788.22;5080478;28;8841;-75
2022/04/13 02:41:36;;;;;;;;;23.50;22.75;;;;;11.36;41.16;99783.84;5064270;28;8856;-72
2022/04/13 02:44:05;;;;;;;;;18.50;17.00;;;;;11.39;41.00;99786.47;5061179;28;8868;-73
2022/04/13 02:46:34;;;;;;;;;27.50;26.25;;;;;11.39;42.04;99789.94;5084611;28;8854;-76
2022/04/13 02:49:03;;;;;;;;;0.75;0.00;;;;;11.27;42.77;99782.13;5062212;28;8895;-76
2022/04/13 02:51:32;;;;;;;;;26.50;25.25;;;;;11.18;43.01;99788.19;5049424;28;8865;-76
2022/04/13 02:54:01;;;;;;;;;23.25;22.50;;;;;11.23;42.73;99780.38;5081054;28;9018;-75
2022/04/13 02:56:29;;;;;;;;;29.33;25.00;;;;;11.27;42.85;99785.59;5048046;28;8861;-75
2022/04/13 02:58:58;;;;;;;;;41.50;34.50;;;;;11.31;42.65;99776.91;5047518;28;8853;-75
2022/04/13 03:01:26;;;;;;;;;31.25;30.50;;;;;11.36;42.68;99783.84;5056104;28;8846;-77
2022/04/13 03:03:55;;;;;;;;;32.25;28.25;;;;;11.36;42.40;99776.03;5066694;28;8850;-74
2022/04/13 03:06:25;;;;;;;;;27.50;27.50;;;;;11.35;42.35;99783.00;5068944;28;8856;-76
2022/04/13 03:08:54;;;;;;;;;35.00;30.50;;;;;11.34;43.25;99770.78;5046465;28;8864;-76
2022/04/13 03:11:23;;;;;;;;;38.00;35.00;;;;;11.30;43.71;99769.06;5047914;28;8852;-76
2022/04/13 03:13:51;;;;;;;;;41.75;34.75;;;;;11.21;44.46;99775.16;5049466;28;8849;-74
2022/04/13 03:16:20;;;;;;;;;39.25;33.25;;;;;11.20;44.34;99775.16;5032141;28;8879;-74
2022/04/13 03:18:48;;;;;;;;;31.00;29.75;;;;;11.19;44.54;99784.75;5063316;28;8878;-74
2022/04/13 03:21:17;;;;;;;;;34.25;31.25;;;;;11.20;44.80;99777.78;5048035;28;9582;-77
2022/04/13 03:23:47;;;;;;;;;35.25;33.50;;;;;11.18;44.93;99777.75;5051452;28;8857;-75
2022/04/13 03:26:16;;;;;;;;;37.75;34.25;;;;;11.17;45.02;99773.44;5051481;28;8860;-75
2022/04/13 03:28:45;;;;;;;;;39.75;33.50;;;;;11.16;45.08;99776.91;5051340;28;8865;-75
2022/04/13 03:31:14;;;;;;;;;36.50;33.25;;;;;11.13;45.30;99776.88;5079421;28;8849;-75
2022/04/13 03:33:42;;;;;;;;;29.75;29.00;;;;;11.11;45.56;99778.63;5032342;28;8845;-74
2022/04/13 03:36:11;;;;;;;;;33.25;29.25;;;;;11.08;45.63;99784.72;5069241;28;8838;-75
2022/04/13 03:38:40;;;;;;;;;33.00;29.00;;;;;11.04;45.35;99774.25;5071272;28;8862;-76
2022/04/13 03:41:10;;;;;;;;;31.75;29.50;;;;;11.00;44.76;99780.34;5069870;28;8858;-74
2022/04/13 03:43:38;;;;;;;;;34.50;32.00;;;;;10.95;44.97;99784.72;5053551;28;8884;-76
2022/04/13 03:46:07;;;;;;;;;32.50;30.25;;;;;10.93;45.19;99792.53;5070900;28;8850;-75
2022/04/13 03:48:36;;;;;;;;;31.00;29.75;;;;;10.91;45.36;99789.03;5070047;28;8854;-76
2022/04/13 03:51:04;;;;;;;;;34.25;30.50;;;;;10.91;45.69;99789.03;5035496;28;8860;-76
2022/04/13 03:53:33;;;;;;;;;48.75;41.50;;;;;10.89;45.03;99796.00;5066510;28;8973;-76
2022/04/13 03:56:02;;;;;;;;;45.25;40.25;;;;;10.86;44.92;99801.19;5068293;28;8952;-77
2022/04/13 03:58:32;;;;;;;;;26.75;26.00;;;;;10.86;44.57;99806.41;5002905;28;8972;-76
2022/04/13 04:01:01;;;;;;;;;34.25;32.00;;;;;10.82;44.40;99804.69;5064838;28;8854;-74
2022/04/13 04:03:30;;;;;;;;;32.50;31.25;;;;;10.81;44.39;99802.91;5031485;28;8987;-75
2022/04/13 04:05:58;;;;;;;;;29.50;27.25;;;;;10.78;43.90;99802.94;5031539;28;8870;-77
2022/04/13 04:08:27;;;;;;;;;26.25;26.00;;;;;10.79;43.92;99808.13;5014545;28;8842;-77
2022/04/13 04:10:57;;;;;;;;;27.25;26.75;;;;;10.78;43.79;99801.19;5051357;28;8953;-76
2022/04/13 04:13:26;;;;;;;;;84.50;66.25;;;;;10.80;43.06;99802.06;5068046;28;8964;-74
2022/04/13 04:15:56;;;;;;;;;64.00;52.00;;;;;10.80;41.77;99803.81;5068307;28;10383;-77
2022/04/13 04:18:24;;;;;;;;;30.00;24.25;;;;;10.83;42.19;99806.41;5018365;28;8863;-79
2022/04/13 04:20:53;;;;;;;;;60.75;49.75;;;;;10.86;42.89;99809.03;5051421;28;8856;-74
2022/04/13 04:23:22;;;;;;;;;56.50;48.00;;;;;10.88;41.96;99817.72;5048854;28;8896;-76
2022/04/13 04:25:50;;;;;;;;;42.00;39.00;;;;;10.90;40.64;99809.03;5030176;28;8980;-78
2022/04/13 04:28:19;;;;;;;;;24.50;21.75;;;;;10.93;40.02;99814.25;5031186;28;8882;-75
2022/04/13 04:30:48;;;;;;;;;29.25;29.25;;;;;11.01;40.50;99818.63;5031013;28;8838;-76
2022/04/13 04:33:18;;;;;;;;;25.50;24.50;;;;;11.01;39.55;99822.09;5046356;28;9036;-75
2022/04/13 04:35:47;;;;;;;;;20.50;18.75;;;;;11.07;39.05;99824.72;5047361;28;8846;-77
2022/04/13 04:38:16;;;;;;;;;27.00;26.25;;;;;11.16;39.24;99831.72;5026444;28;8878;-74
2022/04/13 04:40:45;;;;;;;;;24.75;23.50;;;;;11.22;38.62;99831.72;4979313;28;9593;-77
2022/04/13 04:43:13;;;;;;;;;31.50;30.25;;;;;11.29;38.30;99832.59;5009922;28;8970;-76
2022/04/13 04:45:42;;;;;;;;;26.00;26.00;;;;;11.36;38.06;99834.34;4997788;28;8854;-78
2022/04/13 04:48:11;;;;;;;;;26.25;23.50;;;;;11.45;38.26;99833.47;5065291;28;9000;-77
2022/04/13 04:50:41;;;;;;;;;26.25;24.75;;;;;11.52;38.05;99837.84;5064845;28;8845;-76
2022/04/13 04:53:09;;;;;;;;;26.75;25.50;;;;;11.54;38.07;99845.66;5065080;28;8888;-75
2022/04/13 04:55:39;;;;;;;;;34.50;29.00;;;;;11.52;38.17;99843.91;5064700;28;8964;-76
2022/04/13 04:58:09;;;;;;;;;32.50;29.25;;;;;11.59;38.28;99842.19;5060024;28;8850;-78
2022/04/13 05:00:39;;;;;;;;;31.75;30.00;;;;;11.70;38.49;99843.06;5078612;28;8885;-77
2022/04/13 05:03:08;;;;;;;;;32.25;31.25;;;;;11.77;38.47;99843.06;5047834;28;8952;-75
2022/04/13 05:05:39;;;;;;;;;25.75;25.75;;;;;11.83;38.57;99837.81;5031136;28;8869;-77
2022/04/13 05:08:10;;;;;;;;;27.50;26.00;;;;;11.94;38.32;99837.84;5031290;28;8930;-69
2022/04/13 05:10:38;;;;;;;;;29.50;28.25;;;;;12.03;38.17;99845.66;5048389;28;8951;-70
2022/04/13 05:13:07;;;;;;;;;28.25;25.50;;;;;12.14;37.09;99837.81;5049884;28;9016;-68
2022/04/13 05:15:36;;;;;;;;;26.50;26.50;;;;;12.26;37.54;99835.16;5048778;28;8930;-69
2022/04/13 05:18:05;;;;;;;;;26.50;24.50;;;;;12.37;37.32;99838.63;5047639;28;8852;-69
2022/04/13 05:20:33;;;;;;;;;30.50;27.50;;;;;12.48;36.42;99838.59;5046784;28;8872;-69
2022/04/13 05:23:02;;;;;;;;;23.25;18.75;;;;;12.52;35.57;99842.94;5046856;28;8837;-69
2022/04/13 05:25:32;;;;;;;;;15.00;14.80;;;;;12.57;35.38;99838.56;5048331;28;9000;-71
2022/04/13 05:28:01;;;;;;;;;18.20;18.20;;;;;12.60;33.37;99840.28;5048548;28;8865;-69
2022/04/13 05:30:29;;;;;;;;;18.00;15.20;;;;;12.64;34.11;99836.75;5048195;28;8848;-70
2022/04/13 05:32:58;;;;;;;;;15.00;11.60;;;;;12.71;33.92;99846.34;5048699;28;8873;-79
2022/04/13 05:35:29;;;;;;;;;12.25;10.75;;;;;12.80;33.88;99848.06;5063937;28;8861;-76
2022/04/13 05:37:59;;;;;;;;;20.75;20.50;;;;;12.92;33.57;99849.72;5064299;28;8873;-78
2022/04/13 05:40:28;;;;;;;;;21.75;21.00;;;;;12.99;33.05;99851.44;5048642;28;8871;-78
2022/04/13 05:42:58;;;;;;;;;20.50;20.50;;;;;13.14;33.23;99858.34;5033832;28;8852;-78
2022/04/13 05:45:27;;;;;;;;;26.50;26.50;;;;;13.26;33.54;99846.03;5060686;28;8941;-78
2022/04/13 05:48:02;;;;;;;;;24.25;22.50;;;;;13.54;32.48;99855.47;5080760;28;9920;-78
2022/04/13 05:50:31;;;;;;;;;14.00;12.60;;;;;13.71;32.83;99857.97;5046911;28;8855;-79
2022/04/13 05:52:59;;;;;;;;;20.40;17.60;;;;;13.84;32.25;99859.59;5012907;28;8880;-79
2022/04/13 05:55:29;;;;;;;;;20.40;17.00;;;;;13.80;33.20;99865.75;5013322;28;8861;-84
2022/04/13 05:58:00;;;;;;;;;18.40;17.00;;;;;13.78;32.64;99865.78;5048317;28;8929;-78
2022/04/13 06:00:28;;;;;;;;;16.40;15.60;;;;;13.84;32.69;99864.84;5083525;28;8892;-79
2022/04/13 06:02:57;;;;;;;;;16.80;16.80;;;;;13.92;32.41;99872.66;5094840;28;8872;-77
2022/04/13 06:05:27;;;;;;;;;19.60;18.60;;;;;13.94;32.72;99869.09;5048223;28;8841;-78
2022/04/13 06:07:55;;;;;;;;;17.20;16.80;;;;;13.93;32.73;99864.78;5079141;28;8857;-79
2022/04/13 06:10:24;;;;;;;;;18.80;17.20;;;;;13.97;32.58;99863.84;5048199;28;8870;-78
2022/04/13 06:12:53;;;;;;;;;18.00;17.40;;;;;13.96;32.33;99874.34;5059480;28;8854;-81
2022/04/13 06:15:24;;;;;;;;;18.20;18.20;;;;;13.96;31.76;99877.81;5067349;28;8854;-79
2022/04/13 06:17:53;;;;;;;;;19.40;18.80;;;;;14.15;32.05;99872.41;5041662;28;8865;-80
2022/04/13 06:20:22;;;;;;;;;11.20;10.60;;;;;14.23;31.28;99878.44;5044604;28;8826;-80
2022/04/13 06:22:52;;;;;;;;;14.80;14.80;;;;;14.27;31.04;99874.91;5029098;28;8885;-79
2022/04/13 06:25:21;;;;;;;;;17.80;15.80;;;;;14.35;31.09;99880.09;5049365;28;9702;-78
2022/04/13 06:27:50;;;;;;;;;18.60;18.40;;;;;14.26;31.01;99873.19;5054427;28;8859;-79
2022/04/13 06:30:18;;;;;;;;;18.40;15.00;;;;;14.42;30.90;99876.50;5054276;28;8879;-78
2022/04/13 06:32:49;;;;;;;;;21.75;19.25;;;;;14.55;30.68;99880.72;5032257;28;8856;-78
2022/04/13 06:35:18;;;;;;;;;21.20;19.00;;;;;14.70;30.51;99877.09;5052283;28;8952;-79
2022/04/13 06:37:48;;;;;;;;;19.50;18.75;;;;;14.80;29.81;99877.84;5035851;28;8854;-79
2022/04/13 06:40:17;;;;;;;;;21.40;20.60;;;;;14.99;30.35;99876.72;5061421;28;8902;-79
2022/04/13 06:42:47;;;;;;;;;23.25;21.50;;;;;14.86;30.15;99888.28;5048837;28;8856;-80
2022/04/13 06:45:17;;;;;;;;;17.60;17.00;;;;;15.10;30.39;99880.97;5032534;28;8888;-77
2022/04/13 06:47:47;;;;;;;;;21.25;20.00;;;;;15.04;30.14;99881.03;5025294;28;8861;-80
2022/04/13 06:50:18;;;;;;;;;21.60;18.40;;;;;15.18;29.84;99887.84;5017166;28;9604;-80
2022/04/13 06:52:47;;;;;;;;;21.80;19.20;;;;;15.30;29.59;99892.06;5065898;28;8852;-79
2022/04/13 06:55:15;;;;;;;;;13.60;13.60;;;;;15.53;29.64;99881.19;5048332;28;8835;-80
2022/04/13 06:57:44;;;;;;;;;23.00;19.00;;;;;15.68;29.05;99895.88;5050680;28;8878;-77
2022/04/13 07:00:14;;;;;;;;;18.00;17.20;;;;;15.85;28.17;99893.00;5052177;28;8886;-78
2022/04/13 07:02:43;;;;;;;;;20.00;17.00;;;;;16.04;27.87;99895.31;5032663;28;8888;-79
2022/04/13 07:05:34;;;;;;;;;16.60;16.60;;;;;16.14;28.08;99891.63;5070507;28;8877;-79
2022/04/13 07:08:03;;;;;;;;;17.00;17.00;;;;;16.21;27.47;99885.38;5099827;28;8853;-82
2022/04/13 07:10:33;;;;;;;;;18.60;17.80;;;;;16.30;27.23;99890.47;5066358;28;8849;-81
2022/04/13 07:13:10;;;;;;;;;19.20;15.00;;;;;16.39;27.19;99894.69;5053754;28;8839;-80
2022/04/13 07:15:40;;;;;;;;;13.00;13.00;;;;;16.49;26.88;99898.88;5066014;28;8865;-80
2022/04/13 07:18:09;;;;;;;;;16.00;14.60;;;;;16.64;26.74;99904.75;5056879;28;8992;-80
2022/04/13 07:20:39;;;;;;;;;17.00;16.80;;;;;16.77;26.82;99899.22;5082483;28;8941;-79
2022/04/13 07:23:08;;;;;;;;;26.75;24.50;;;;;16.80;26.60;99900.03;5050379;28;8848;-78
2022/04/13 07:25:37;;;;;;;;;17.20;16.00;;;;;16.89;26.83;99905.16;5055905;28;8836;-79
2022/04/13 07:28:06;;;;;;;;;15.80;13.80;;;;;16.99;26.09;99911.09;5053476;28;9640;-82
2022/04/13 07:30:35;;;;;;;;;13.80;9.80;;;;;16.99;25.31;99913.72;5024282;28;8969;-80
2022/04/13 07:33:04;;;;;;;;;14.40;13.40;;;;;17.01;25.70;99918.06;5052213;28;8848;-79
2022/04/13 07:35:33;;;;;;;;;19.80;19.20;;;;;17.11;26.30;99910.84;5073009;28;8953;-80
2022/04/13 07:38:03;;;;;;;;;18.80;16.60;;;;;17.17;25.77;99912.50;5067030;28;9691;-79
2022/04/13 07:40:32;;;;;;;;;16.80;15.80;;;;;17.10;25.64;99914.38;5011098;28;9018;-80
2022/04/13 07:43:01;;;;;;;;;15.00;15.00;;;;;17.19;25.63;99921.22;4994885;28;8899;-77
2022/04/13 07:45:31;;;;;;;;;15.60;15.60;;;;;17.22;25.43;99921.13;4995340;28;8889;-79
2022/04/13 07:48:00;;;;;;;;;15.40;14.20;;;;;17.01;25.50;99920.69;5027932;28;8851;-79
2022/04/13 07:50:29;;;;;;;;;10.80;10.40;;;;;16.91;24.65;99924.44;5019480;28;8868;-80
2022/04/13 07:52:59;;;;;;;;;8.00;8.00;;;;;16.83;23.98;99921.09;5028529;28;8844;-78
2022/04/13 07:55:30;;;;;;;;;14.60;12.20;;;;;16.92;24.07;99923.56;5027079;28;8856;-78
2022/04/13 07:57:59;;;;;;;;;12.60;11.60;;;;;16.74;24.47;99928.22;5027921;28;8872;-79
2022/04/13 08:00:27;;;;;;;;;14.80;13.60;;;;;16.88;24.50;99937.66;5027642;28;8857;-77
2022/04/13 08:02:56;;;;;;;;;12.00;12.00;;;;;16.95;24.55;99932.22;5010560;28;8868;-79
2022/04/13 08:05:26;;;;;;;;;14.00;14.00;;;;;16.96;24.70;99930.50;5027523;28;8896;-78
2022/04/13 08:07:54;;;;;;;;;10.40;9.60;;;;;16.88;24.91;99935.91;5010313;28;8895;-81
2022/04/13 08:10:24;;;;;;;;;12.60;11.40;;;;;16.95;25.14;99934.88;5007152;28;8857;-79
2022/04/13 08:12:54;;;;;;;;;9.40;9.00;;;;;17.06;24.69;99932.00;5074171;28;8958;-79
2022/04/13 08:15:24;;;;;;;;;13.00;11.80;;;;;17.20;24.40;99936.13;5062652;28;8949;-78
2022/04/13 08:17:52;;;;;;;;;11.80;11.80;;;;;17.31;24.48;99934.97;5069869;28;8830;-77
2022/04/13 08:20:21;;;;;;;;;12.60;12.40;;;;;17.44;24.28;99932.94;5051331;28;8868;-81
2022/04/13 08:22:50;;;;;;;;;17.25;16.75;;;;;17.41;24.66;99935.69;5050849;28;8873;-81
2022/04/13 08:25:20;;;;;;;;;10.80;10.00;;;;;17.54;23.91;99933.59;5082241;28;8865;-79
2022/04/13 08:27:48;;;;;;;;;13.20;13.20;;;;;17.61;23.75;99935.19;5057478;28;8891;-71
2022/04/13 08:30:23;;;;;;;;;8.80;8.00;;;;;17.56;23.82;99934.47;5031856;28;8852;-72
2022/04/13 08:32:52;;;;;;;;;9.60;9.60;;;;;17.57;23.60;99938.81;5062896;28;8872;-76
2022/04/13 08:35:21;;;;;;;;;13.60;11.60;;;;;17.48;23.76;99941.66;5010170;28;8858;-73
2022/04/13 08:37:49;;;;;;;;;12.40;12.40;;;;;17.57;23.43;99941.47;5083198;28;8913;-73
2022/04/13 08:40:19;;;;;;;;;22.00;18.25;;;;;17.63;24.12;99936.03;5064813;28;8861;-78
2022/04/13 08:42:58;;;;;;;;;11.40;11.00;;;;;17.54;23.39;99942.41;5033512;28;8846;-77
2022/04/13 08:45:40;;;;;;;;;16.00;15.20;;;;;17.66;23.38;99945.66;5068953;28;8846;-75
2022/04/13 08:48:12;;;;;;;;;10.40;9.40;;;;;17.56;22.81;99937.09;5084806;28;8862;-76
2022/04/13 08:50:45;;;;;;;;;11.20;11.20;;;;;17.68;22.96;99931.53;5067069;28;8883;-76
2022/04/13 08:53:19;;;;;;;;;12.20;11.00;;;;;17.75;22.80;99940.19;5069842;28;8858;-78
2022/04/13 08:55:53;;;;;;;;;11.40;10.60;;;;;17.85;22.42;99943.50;5067364;28;8959;-76
2022/04/13 08:58:30;;;;;;;;;12.00;12.00;;;;;17.89;22.79;99935.44;5067953;28;8981;-75
2022/04/13 09:01:05;;;;;;;;;10.20;9.40;;;;;18.03;22.74;99934.25;5065169;28;8841;-76
2022/04/13 09:03:43;;;;;;;;;10.80;9.00;;;;;17.99;22.59;99933.44;5037002;28;8979;-78
2022/04/13 09:06:12;;;;;;;;;12.80;11.20;;;;;18.05;22.49;99930.69;5067773;28;8873;-76
2022/04/13 09:08:49;;;;;;;;;14.20;11.40;;;;;18.03;22.37;99927.19;5033278;28;8967;-71
2022/04/13 09:11:20;;;;;;;;;12.00;12.00;;;;;18.09;22.67;99931.44;5066029;28;8850;-71
2022/04/13 09:13:49;;;;;;;;;12.20;12.20;;;;;17.94;22.54;99938.00;5067375;28;8862;-68
2022/04/13 09:16:19;;;;;;;;;13.40;11.60;;;;;17.93;23.03;99930.97;5066760;28;8834;-72
2022/04/13 09:18:48;;;;;;;;;13.80;13.60;;;;;18.02;23.33;99935.16;5062918;28;8856;-72
2022/04/13 09:21:18;;;;;;;;;14.40;13.40;;;;;18.01;23.31;99936.06;5048578;28;8868;-72
2022/04/13 09:23:47;;;;;;;;;12.00;11.60;;;;;18.02;22.03;99932.53;5048621;28;8863;-72
2022/04/13 09:26:16;;;;;;;;;10.80;10.80;;;;;18.07;22.24;99936.78;5056369;28;8863;-73
2022/04/13 09:28:44;;;;;;;;;12.00;10.00;;;;;18.12;22.02;99920.81;5053687;28;8895;-73
2022/04/13 09:31:13;;;;;;;;;11.60;11.60;;;;;18.23;21.78;99924.06;5047576;28;8927;-74
2022/04/13 09:33:44;;;;;;;;;10.80;10.80;;;;;18.27;22.36;99917.78;5062313;28;8980;-77
2022/04/13 09:36:14;;;;;;;;;10.60;10.20;;;;;18.28;21.32;99916.03;5048836;28;8880;-72
2022/04/13 09:38:43;;;;;;;;;11.60;10.80;;;;;18.39;21.82;99921.00;5089869;28;8895;-71
2022/04/13 09:41:15;;;;;;;;;16.00;16.00;;;;;18.43;23.25;99912.97;5047891;28;8860;-71
2022/04/13 09:43:54;;;;;;;;;21.60;17.20;;;;;18.40;23.57;99917.47;5048334;28;8982;-71
2022/04/13 09:46:28;;;;;;;;;14.60;14.60;;;;;18.18;22.13;99915.38;5048115;28;8857;-71
2022/04/13 09:49:12;;;;;;;;;14.40;13.20;;;;;18.33;22.50;99913.25;5048533;28;8856;-72
2022/04/13 09:51:43;;;;;;;;;15.60;15.60;;;;;18.21;23.39;99920.59;5048213;28;8922;-73
2022/04/13 09:54:13;;;;;;;;;18.80;18.80;;;;;18.23;23.72;99913.50;5047605;28;8869;-70
2022/04/13 09:56:46;;;;;;;;;21.20;17.80;;;;;18.20;23.55;99917.97;5063183;28;8872;-73
2022/04/13 09:59:25;;;;;;;;;18.40;15.80;;;;;18.22;22.78;99919.69;5006014;28;8972;-71
2022/04/13 10:01:55;;;;;;;;;20.40;17.80;;;;;18.28;23.52;99919.53;5011754;28;8966;-71
2022/04/13 10:04:27;;;;;;;;;17.60;16.20;;;;;18.37;23.66;99912.25;5046787;28;8973;-72
2022/04/13 10:06:56;;;;;;;;;18.20;17.80;;;;;18.47;23.20;99914.63;5028439;28;8865;-74
2022/04/13 10:09:25;;;;;;;;;20.20;17.00;;;;;18.31;22.68;99916.78;5054585;28;8854;-73
2022/04/13 10:12:02;;;;;;;;;16.60;14.80;;;;;18.06;23.68;99910.44;5048911;28;9020;-77
2022/04/13 10:14:31;;;;;;;;;12.00;12.00;;;;;18.10;23.95;99914.72;5067347;28;8866;-76
2022/04/13 10:17:07;;;;;;;;;6.20;5.40;;;;;18.17;23.93;99916.31;5046731;28;9703;-76
2022/04/13 10:19:37;;;;;;;;;16.00;15.40;;;;;18.19;23.55;99914.47;5061620;28;8852;-74
2022/04/13 10:22:06;;;;;;;;;14.20;13.00;;;;;18.16;23.05;99908.41;5047669;28;8857;-77
2022/04/13 10:24:37;;;;;;;;;14.40;14.20;;;;;17.96;23.36;99914.19;5009612;28;8878;-73
2022/04/13 10:27:08;;;;;;;;;19.20;17.60;;;;;16.50;24.24;99919.06;5048742;28;8846;-74
2022/04/13 10:29:38;;;;;;;;;12.40;12.40;;;;;16.37;24.52;99918.41;5065851;28;8854;-75
2022/04/13 10:32:09;;;;;;;;;20.80;16.20;;;;;16.25;24.69;99913.34;5050594;28;8973;-71
2022/04/13 10:34:45;;;;;;;;;16.80;16.80;;;;;16.04;25.40;99919.00;5064093;28;8823;-77
2022/04/13 10:37:15;;;;;;;;;14.80;11.40;;;;;16.43;25.21;99904.28;5067450;28;9662;-74
2022/04/13 10:39:46;;;;;;;;;15.80;14.80;;;;;16.69;24.88;99902.88;5066845;28;8985;-73
2022/04/13 10:42:17;;;;;;;;;14.60;14.20;;;;;17.08;24.77;99900.38;5067738;28;8893;-77
2022/04/13 10:44:51;;;;;;;;;17.00;15.20;;;;;17.07;23.68;99898.63;5039369;28;8878;-74
2022/04/13 10:47:30;;;;;;;;;15.60;15.60;;;;;16.76;23.65;99901.88;5012163;28;8889;-72
2022/04/13 10:50:03;;;;;;;;;13.40;13.00;;;;;17.12;23.17;99888.84;5028477;28;8895;-71
2022/04/13 10:52:35;;;;;;;;;18.60;16.00;;;;;17.43;23.41;99901.34;5044834;28;8969;-72
2022/04/13 10:55:07;;;;;;;;;15.60;15.40;;;;;17.68;23.72;99893.75;5044530;28;8896;-70
2022/04/13 10:57:37;;;;;;;;;15.80;13.60;;;;;17.94;23.35;99887.88;5043552;28;8874;-71
2022/04/13 11:00:10;;;;;;;;;14.40;13.20;;;;;18.11;23.83;99877.72;5044267;28;8880;-70
2022/04/13 11:02:47;;;;;;;;;12.80;12.80;;;;;18.29;22.83;99879.00;5044717;28;8892;-69
2022/04/13 11:05:18;;;;;;;;;13.80;13.00;;;;;18.61;22.93;99873.75;5044522;28;8886;-72
2022/04/13 11:07:47;;;;;;;;;13.60;13.40;;;;;18.71;22.06;99869.94;5028111;28;8857;-71
2022/04/13 11:10:19;;;;;;;;;12.00;10.00;;;;;19.02;22.26;99871.72;5044428;28;8877;-77
2022/04/13 11:12:48;;;;;;;;;12.60;12.00;;;;;19.27;21.02;99866.53;5044207;28;8877;-78
2022/04/13 11:15:38;;;;;;;;;13.80;12.20;;;;;19.44;20.65;99855.44;5029928;28;8861;-80
2022/04/13 11:18:09;;;;;;;;;12.60;12.00;;;;;19.58;19.76;99862.91;5046257;28;8998;-78
2022/04/13 11:21:06;;;;;;;;;11.20;11.20;;;;;19.83;20.42;99850.66;5051175;28;8846;-76
2022/04/13 11:23:49;;;;;;;;;10.60;10.60;;;;;20.15;20.23;99851.34;5047984;28;8856;-78
2022/04/13 11:26:27;;;;;;;;;11.60;11.20;;;;;20.24;19.34;99851.00;5031999;28;8877;-77
2022/04/13 11:29:16;;;;;;;;;16.80;13.60;;;;;20.38;20.16;99847.00;5064686;28;8844;-77
2022/04/13 11:32:09;;;;;;;;;13.20;13.00;;;;;20.57;19.35;99839.25;5047829;28;8847;-76
2022/04/13 11:34:41;;;;;;;;;15.00;13.20;;;;;20.55;19.69;99839.28;5064848;28;8852;-79
2022/04/13 11:37:13;;;;;;;;;12.60;11.60;;;;;20.77;20.05;99836.72;5032138;28;9586;-78
2022/04/13 11:39:52;;;;;;;;;14.20;13.40;;;;;20.65;19.15;99831.91;5012451;28;8862;-78
2022/04/13 11:43:00;;;;;;;;;15.80;13.80;;;;;20.92;19.32;99837.91;5045663;28;8855;-78